sensor_id;sensor_type;location;lat;lon;timestamp;P1;durP1;ratioP1;P2;durP2;ratioP2
2406;SDS011;37709;53.480;9.688;2022-12-19T00:00:10;10.73;;;6.77;;
2406;SDS011;37709;53.480;9.688;2022-12-19T00:02:41;8.10;;;5.37;;
2406;SDS011;37709;53.480;9.688;2022-12-19T00:05:09;10.27;;;6.60;;
2406;SDS011;37709;53.480;9.688;2022-12-19T00:07:39;10.93;;;7.63;;
2406;SDS011;37709;53.480;9.688;2022-12-19T00:10:06;9.33;;;6.83;;
2406;SDS011;37709;53.480;9.688;2022-12-19T00:12:34;9.97;;;6.97;;
2406;SDS011;37709;53.480;9.688;2022-12-19T00:15:01;7.77;;;6.20;;
2406;SDS011;37709;53.480;9.688;2022-12-19T00:17:29;9.97;;;6.77;;
2406;SDS011;37709;53.480;9.688;2022-12-19T00:20:00;9.17;;;6.93;;
2406;SDS011;37709;53.480;9.688;2022-12-19T00:22:28;8.10;;;6.83;;
2406;SDS011;37709;53.480;9.688;2022-12-19T00:24:55;4.87;;;3.83;;
2406;SDS011;37709;53.480;9.688;2022-12-19T00:27:22;7.87;;;6.27;;
2406;SDS011;37709;53.480;9.688;2022-12-19T00:29:51;10.37;;;6.93;;
2406;SDS011;37709;53.480;9.688;2022-12-19T00:35:11;8.30;;;6.63;;
2406;SDS011;37709;53.480;9.688;2022-12-19T00:37:38;8.40;;;7.10;;
2406;SDS011;37709;53.480;9.688;2022-12-19T00:40:15;9.90;;;6.97;;
2406;SDS011;37709;53.480;9.688;2022-12-19T00:42:42;10.57;;;6.43;;
2406;SDS011;37709;53.480;9.688;2022-12-19T00:45:17;7.93;;;5.67;;
2406;SDS011;37709;53.480;9.688;2022-12-19T00:47:45;11.00;;;7.40;;
2406;SDS011;37709;53.480;9.688;2022-12-19T00:50:12;9.23;;;6.27;;
2406;SDS011;37709;53.480;9.688;2022-12-19T00:52:40;11.17;;;7.00;;
2406;SDS011;37709;53.480;9.688;2022-12-19T00:55:07;8.10;;;6.20;;
2406;SDS011;37709;53.480;9.688;2022-12-19T00:57:42;9.57;;;5.83;;
2406;SDS011;37709;53.480;9.688;2022-12-19T01:00:10;8.37;;;6.67;;
2406;SDS011;37709;53.480;9.688;2022-12-19T01:02:38;9.90;;;5.50;;
2406;SDS011;37709;53.480;9.688;2022-12-19T01:05:05;8.47;;;6.17;;
2406;SDS011;37709;53.480;9.688;2022-12-19T01:07:33;11.53;;;7.20;;
2406;SDS011;37709;53.480;9.688;2022-12-19T01:10:01;9.90;;;7.20;;
2406;SDS011;37709;53.480;9.688;2022-12-19T01:12:28;9.40;;;7.57;;
2406;SDS011;37709;53.480;9.688;2022-12-19T01:15:15;10.33;;;7.57;;
2406;SDS011;37709;53.480;9.688;2022-12-19T01:17:47;8.40;;;7.00;;
2406;SDS011;37709;53.480;9.688;2022-12-19T01:20:16;9.67;;;6.80;;
2406;SDS011;37709;53.480;9.688;2022-12-19T01:22:56;9.50;;;6.87;;
2406;SDS011;37709;53.480;9.688;2022-12-19T01:25:26;5.10;;;4.13;;
2406;SDS011;37709;53.480;9.688;2022-12-19T01:27:54;7.50;;;6.63;;
2406;SDS011;37709;53.480;9.688;2022-12-19T01:30:22;7.43;;;5.30;;
2406;SDS011;37709;53.480;9.688;2022-12-19T01:32:50;8.67;;;6.13;;
2406;SDS011;37709;53.480;9.688;2022-12-19T01:35:19;10.10;;;6.47;;
2406;SDS011;37709;53.480;9.688;2022-12-19T01:37:49;8.37;;;6.23;;
2406;SDS011;37709;53.480;9.688;2022-12-19T01:40:34;14.73;;;8.10;;
2406;SDS011;37709;53.480;9.688;2022-12-19T01:43:01;8.57;;;6.73;;
2406;SDS011;37709;53.480;9.688;2022-12-19T01:45:35;8.57;;;6.37;;
2406;SDS011;37709;53.480;9.688;2022-12-19T01:48:13;10.83;;;7.53;;
2406;SDS011;37709;53.480;9.688;2022-12-19T01:50:53;9.70;;;7.03;;
2406;SDS011;37709;53.480;9.688;2022-12-19T01:53:39;10.93;;;8.30;;
2406;SDS011;37709;53.480;9.688;2022-12-19T01:56:16;12.30;;;8.20;;
2406;SDS011;37709;53.480;9.688;2022-12-19T01:58:50;10.40;;;8.90;;
2406;SDS011;37709;53.480;9.688;2022-12-19T02:01:35;12.40;;;8.67;;
2406;SDS011;37709;53.480;9.688;2022-12-19T02:04:20;7.87;;;6.60;;
2406;SDS011;37709;53.480;9.688;2022-12-19T02:06:48;11.93;;;7.73;;
2406;SDS011;37709;53.480;9.688;2022-12-19T02:09:17;11.00;;;8.50;;
2406;SDS011;37709;53.480;9.688;2022-12-19T02:11:45;12.60;;;8.40;;
2406;SDS011;37709;53.480;9.688;2022-12-19T02:14:14;11.70;;;8.50;;
2406;SDS011;37709;53.480;9.688;2022-12-19T02:17:00;10.90;;;8.00;;
2406;SDS011;37709;53.480;9.688;2022-12-19T02:19:54;11.03;;;7.43;;
2406;SDS011;37709;53.480;9.688;2022-12-19T02:25:57;8.20;;;6.60;;
2406;SDS011;37709;53.480;9.688;2022-12-19T02:31:48;11.20;;;7.53;;
2406;SDS011;37709;53.480;9.688;2022-12-19T02:34:32;8.90;;;5.50;;
2406;SDS011;37709;53.480;9.688;2022-12-19T02:37:08;10.20;;;7.63;;
2406;SDS011;37709;53.480;9.688;2022-12-19T02:39:41;12.90;;;9.37;;
2406;SDS011;37709;53.480;9.688;2022-12-19T02:42:19;9.23;;;6.30;;
2406;SDS011;37709;53.480;9.688;2022-12-19T02:44:57;10.97;;;8.60;;
2406;SDS011;37709;53.480;9.688;2022-12-19T02:47:28;12.43;;;8.20;;
2406;SDS011;37709;53.480;9.688;2022-12-19T02:49:58;11.60;;;8.30;;
2406;SDS011;37709;53.480;9.688;2022-12-19T02:54:56;14.37;;;9.87;;
2406;SDS011;37709;53.480;9.688;2022-12-19T02:57:31;9.17;;;7.40;;
2406;SDS011;37709;53.480;9.688;2022-12-19T03:00:03;12.83;;;9.40;;
2406;SDS011;37709;53.480;9.688;2022-12-19T03:06:03;11.93;;;8.20;;
2406;SDS011;37709;53.480;9.688;2022-12-19T03:08:46;10.90;;;7.87;;
2406;SDS011;37709;53.480;9.688;2022-12-19T03:11:21;11.13;;;8.80;;
2406;SDS011;37709;53.480;9.688;2022-12-19T03:13:52;13.47;;;9.03;;
2406;SDS011;37709;53.480;9.688;2022-12-19T03:16:25;12.80;;;9.17;;
2406;SDS011;37709;53.480;9.688;2022-12-19T03:18:54;10.27;;;8.23;;
2406;SDS011;37709;53.480;9.688;2022-12-19T03:21:26;7.87;;;3.80;;
2406;SDS011;37709;53.480;9.688;2022-12-19T03:23:59;14.37;;;9.27;;
2406;SDS011;37709;53.480;9.688;2022-12-19T03:26:40;12.53;;;8.87;;
2406;SDS011;37709;53.480;9.688;2022-12-19T03:29:24;11.23;;;7.13;;
2406;SDS011;37709;53.480;9.688;2022-12-19T03:31:58;7.63;;;5.90;;
2406;SDS011;37709;53.480;9.688;2022-12-19T03:34:38;12.10;;;9.30;;
2406;SDS011;37709;53.480;9.688;2022-12-19T03:37:19;11.27;;;8.30;;
2406;SDS011;37709;53.480;9.688;2022-12-19T03:39:54;14.20;;;10.03;;
2406;SDS011;37709;53.480;9.688;2022-12-19T03:42:28;12.83;;;9.77;;
2406;SDS011;37709;53.480;9.688;2022-12-19T03:45:17;20.13;;;10.60;;
2406;SDS011;37709;53.480;9.688;2022-12-19T03:47:59;12.33;;;8.93;;
2406;SDS011;37709;53.480;9.688;2022-12-19T03:50:33;10.67;;;8.07;;
2406;SDS011;37709;53.480;9.688;2022-12-19T03:53:33;11.13;;;8.30;;
2406;SDS011;37709;53.480;9.688;2022-12-19T03:56:55;13.40;;;9.47;;
2406;SDS011;37709;53.480;9.688;2022-12-19T04:02:06;13.60;;;9.30;;
2406;SDS011;37709;53.480;9.688;2022-12-19T04:04:37;13.80;;;9.93;;
2406;SDS011;37709;53.480;9.688;2022-12-19T04:07:08;14.87;;;10.23;;
2406;SDS011;37709;53.480;9.688;2022-12-19T04:09:37;12.00;;;9.60;;
2406;SDS011;37709;53.480;9.688;2022-12-19T04:12:11;13.97;;;9.40;;
2406;SDS011;37709;53.480;9.688;2022-12-19T04:14:41;15.30;;;10.40;;
2406;SDS011;37709;53.480;9.688;2022-12-19T04:17:14;6.23;;;4.00;;
2406;SDS011;37709;53.480;9.688;2022-12-19T04:19:59;7.93;;;6.37;;
2406;SDS011;37709;53.480;9.688;2022-12-19T04:25:09;12.17;;;7.60;;
2406;SDS011;37709;53.480;9.688;2022-12-19T04:27:40;16.63;;;9.37;;
2406;SDS011;37709;53.480;9.688;2022-12-19T04:30:14;14.23;;;9.07;;
2406;SDS011;37709;53.480;9.688;2022-12-19T04:32:43;16.90;;;11.37;;
2406;SDS011;37709;53.480;9.688;2022-12-19T04:35:12;12.53;;;8.97;;
2406;SDS011;37709;53.480;9.688;2022-12-19T04:37:40;15.20;;;10.50;;
2406;SDS011;37709;53.480;9.688;2022-12-19T04:40:07;14.17;;;10.20;;
2406;SDS011;37709;53.480;9.688;2022-12-19T04:42:36;15.30;;;10.60;;
2406;SDS011;37709;53.480;9.688;2022-12-19T04:45:04;12.00;;;8.73;;
2406;SDS011;37709;53.480;9.688;2022-12-19T04:47:32;16.43;;;9.33;;
2406;SDS011;37709;53.480;9.688;2022-12-19T04:49:59;16.13;;;10.77;;
2406;SDS011;37709;53.480;9.688;2022-12-19T04:52:27;19.40;;;11.50;;
2406;SDS011;37709;53.480;9.688;2022-12-19T04:54:54;15.80;;;10.17;;
2406;SDS011;37709;53.480;9.688;2022-12-19T04:57:22;15.50;;;9.60;;
2406;SDS011;37709;53.480;9.688;2022-12-19T04:59:49;13.10;;;10.30;;
2406;SDS011;37709;53.480;9.688;2022-12-19T05:02:16;16.90;;;10.23;;
2406;SDS011;37709;53.480;9.688;2022-12-19T05:04:44;3.77;;;3.37;;
2406;SDS011;37709;53.480;9.688;2022-12-19T05:07:14;14.20;;;10.23;;
2406;SDS011;37709;53.480;9.688;2022-12-19T05:09:45;13.33;;;8.80;;
2406;SDS011;37709;53.480;9.688;2022-12-19T05:12:12;8.13;;;5.97;;
2406;SDS011;37709;53.480;9.688;2022-12-19T05:14:40;13.87;;;10.20;;
2406;SDS011;37709;53.480;9.688;2022-12-19T05:17:07;15.53;;;9.37;;
2406;SDS011;37709;53.480;9.688;2022-12-19T05:19:35;18.23;;;11.30;;
2406;SDS011;37709;53.480;9.688;2022-12-19T05:22:02;17.33;;;9.97;;
2406;SDS011;37709;53.480;9.688;2022-12-19T05:24:30;14.40;;;10.90;;
2406;SDS011;37709;53.480;9.688;2022-12-19T05:27:01;13.63;;;10.40;;
2406;SDS011;37709;53.480;9.688;2022-12-19T05:29:29;16.00;;;10.83;;
2406;SDS011;37709;53.480;9.688;2022-12-19T05:31:56;14.20;;;10.33;;
2406;SDS011;37709;53.480;9.688;2022-12-19T05:34:25;14.33;;;10.13;;
2406;SDS011;37709;53.480;9.688;2022-12-19T05:36:53;17.30;;;11.13;;
2406;SDS011;37709;53.480;9.688;2022-12-19T05:39:22;14.30;;;9.63;;
2406;SDS011;37709;53.480;9.688;2022-12-19T05:41:49;13.63;;;9.53;;
2406;SDS011;37709;53.480;9.688;2022-12-19T05:44:17;16.97;;;11.57;;
2406;SDS011;37709;53.480;9.688;2022-12-19T05:46:45;13.40;;;9.60;;
2406;SDS011;37709;53.480;9.688;2022-12-19T05:49:12;16.20;;;10.90;;
2406;SDS011;37709;53.480;9.688;2022-12-19T05:51:41;12.27;;;9.20;;
2406;SDS011;37709;53.480;9.688;2022-12-19T05:54:08;15.50;;;10.90;;
2406;SDS011;37709;53.480;9.688;2022-12-19T05:56:35;14.80;;;9.77;;
2406;SDS011;37709;53.480;9.688;2022-12-19T05:59:03;14.57;;;10.60;;
2406;SDS011;37709;53.480;9.688;2022-12-19T06:01:30;13.97;;;9.17;;
2406;SDS011;37709;53.480;9.688;2022-12-19T06:03:59;16.23;;;11.13;;
2406;SDS011;37709;53.480;9.688;2022-12-19T06:06:27;14.50;;;10.20;;
2406;SDS011;37709;53.480;9.688;2022-12-19T06:08:55;16.63;;;10.23;;
2406;SDS011;37709;53.480;9.688;2022-12-19T06:11:25;19.90;;;11.77;;
2406;SDS011;37709;53.480;9.688;2022-12-19T06:13:52;16.57;;;10.73;;
2406;SDS011;37709;53.480;9.688;2022-12-19T06:16:20;14.77;;;9.47;;
2406;SDS011;37709;53.480;9.688;2022-12-19T06:18:48;17.63;;;10.47;;
2406;SDS011;37709;53.480;9.688;2022-12-19T06:21:20;19.27;;;11.77;;
2406;SDS011;37709;53.480;9.688;2022-12-19T06:23:48;17.23;;;11.67;;
2406;SDS011;37709;53.480;9.688;2022-12-19T06:26:19;15.43;;;10.50;;
2406;SDS011;37709;53.480;9.688;2022-12-19T06:28:48;15.10;;;10.60;;
2406;SDS011;37709;53.480;9.688;2022-12-19T06:31:18;17.33;;;12.20;;
2406;SDS011;37709;53.480;9.688;2022-12-19T06:33:46;19.65;;;13.45;;
2406;SDS011;37709;53.480;9.688;2022-12-19T06:36:19;19.50;;;13.00;;
2406;SDS011;37709;53.480;9.688;2022-12-19T06:38:54;15.30;;;10.60;;
2406;SDS011;37709;53.480;9.688;2022-12-19T06:41:23;15.37;;;11.13;;
2406;SDS011;37709;53.480;9.688;2022-12-19T06:44:12;10.57;;;6.23;;
2406;SDS011;37709;53.480;9.688;2022-12-19T06:46:41;12.40;;;8.43;;
2406;SDS011;37709;53.480;9.688;2022-12-19T06:49:09;18.58;;;13.50;;
2406;SDS011;37709;53.480;9.688;2022-12-19T06:51:36;13.03;;;10.17;;
2406;SDS011;37709;53.480;9.688;2022-12-19T06:54:04;16.97;;;11.00;;
2406;SDS011;37709;53.480;9.688;2022-12-19T06:56:37;13.40;;;9.03;;
2406;SDS011;37709;53.480;9.688;2022-12-19T06:59:06;16.40;;;11.37;;
2406;SDS011;37709;53.480;9.688;2022-12-19T07:01:41;19.33;;;15.30;;
2406;SDS011;37709;53.480;9.688;2022-12-19T07:04:36;15.47;;;10.33;;
2406;SDS011;37709;53.480;9.688;2022-12-19T07:07:09;13.53;;;9.50;;
2406;SDS011;37709;53.480;9.688;2022-12-19T07:09:37;13.30;;;10.43;;
2406;SDS011;37709;53.480;9.688;2022-12-19T07:12:05;11.87;;;9.00;;
2406;SDS011;37709;53.480;9.688;2022-12-19T07:14:34;17.57;;;10.70;;
2406;SDS011;37709;53.480;9.688;2022-12-19T07:17:01;16.43;;;10.00;;
2406;SDS011;37709;53.480;9.688;2022-12-19T07:19:29;14.17;;;9.57;;
2406;SDS011;37709;53.480;9.688;2022-12-19T07:21:58;18.93;;;10.33;;
2406;SDS011;37709;53.480;9.688;2022-12-19T07:24:27;17.83;;;9.20;;
2406;SDS011;37709;53.480;9.688;2022-12-19T07:26:55;21.15;;;15.85;;
2406;SDS011;37709;53.480;9.688;2022-12-19T07:29:23;16.07;;;11.50;;
2406;SDS011;37709;53.480;9.688;2022-12-19T07:31:51;16.17;;;10.20;;
2406;SDS011;37709;53.480;9.688;2022-12-19T07:34:18;24.65;;;17.00;;
2406;SDS011;37709;53.480;9.688;2022-12-19T07:36:46;19.60;;;13.13;;
2406;SDS011;37709;53.480;9.688;2022-12-19T07:39:13;22.10;;;13.40;;
2406;SDS011;37709;53.480;9.688;2022-12-19T07:41:40;17.83;;;12.00;;
2406;SDS011;37709;53.480;9.688;2022-12-19T07:44:08;17.00;;;11.27;;
2406;SDS011;37709;53.480;9.688;2022-12-19T07:46:38;21.50;;;13.70;;
2406;SDS011;37709;53.480;9.688;2022-12-19T07:49:06;17.10;;;11.53;;
2406;SDS011;37709;53.480;9.688;2022-12-19T07:54:27;17.03;;;12.43;;
2406;SDS011;37709;53.480;9.688;2022-12-19T07:56:55;16.93;;;11.70;;
2406;SDS011;37709;53.480;9.688;2022-12-19T07:59:22;17.03;;;11.00;;
2406;SDS011;37709;53.480;9.688;2022-12-19T08:01:57;16.90;;;10.87;;
2406;SDS011;37709;53.480;9.688;2022-12-19T08:04:28;15.63;;;10.47;;
2406;SDS011;37709;53.480;9.688;2022-12-19T08:06:55;18.20;;;12.60;;
2406;SDS011;37709;53.480;9.688;2022-12-19T08:09:23;13.67;;;10.57;;
2406;SDS011;37709;53.480;9.688;2022-12-19T08:11:53;13.53;;;8.73;;
2406;SDS011;37709;53.480;9.688;2022-12-19T08:14:20;26.45;;;17.65;;
2406;SDS011;37709;53.480;9.688;2022-12-19T08:16:48;16.77;;;11.67;;
2406;SDS011;37709;53.480;9.688;2022-12-19T08:19:35;17.80;;;11.57;;
2406;SDS011;37709;53.480;9.688;2022-12-19T08:22:02;25.33;;;12.20;;
2406;SDS011;37709;53.480;9.688;2022-12-19T08:24:29;12.20;;;7.70;;
2406;SDS011;37709;53.480;9.688;2022-12-19T08:26:57;11.30;;;7.10;;
2406;SDS011;37709;53.480;9.688;2022-12-19T08:29:24;28.00;;;18.25;;
2406;SDS011;37709;53.480;9.688;2022-12-19T08:34:48;19.57;;;11.90;;
2406;SDS011;37709;53.480;9.688;2022-12-19T08:37:22;20.77;;;14.97;;
2406;SDS011;37709;53.480;9.688;2022-12-19T08:39:50;17.33;;;10.70;;
2406;SDS011;37709;53.480;9.688;2022-12-19T08:42:18;19.17;;;10.73;;
2406;SDS011;37709;53.480;9.688;2022-12-19T08:44:45;20.20;;;12.57;;
2406;SDS011;37709;53.480;9.688;2022-12-19T08:47:17;21.00;;;12.93;;
2406;SDS011;37709;53.480;9.688;2022-12-19T08:49:45;25.53;;;14.50;;
2406;SDS011;37709;53.480;9.688;2022-12-19T08:55:07;21.50;;;12.67;;
2406;SDS011;37709;53.480;9.688;2022-12-19T08:57:39;41.15;;;23.00;;
2406;SDS011;37709;53.480;9.688;2022-12-19T09:00:10;21.03;;;13.37;;
2406;SDS011;37709;53.480;9.688;2022-12-19T09:02:41;32.23;;;15.83;;
2406;SDS011;37709;53.480;9.688;2022-12-19T09:05:09;31.43;;;17.27;;
2406;SDS011;37709;53.480;9.688;2022-12-19T09:07:57;32.20;;;15.53;;
2406;SDS011;37709;53.480;9.688;2022-12-19T09:10:24;37.80;;;19.50;;
2406;SDS011;37709;53.480;9.688;2022-12-19T09:12:51;30.70;;;15.73;;
2406;SDS011;37709;53.480;9.688;2022-12-19T09:15:24;34.97;;;18.40;;
2406;SDS011;37709;53.480;9.688;2022-12-19T09:17:55;29.40;;;16.23;;
2406;SDS011;37709;53.480;9.688;2022-12-19T09:20:23;27.20;;;15.53;;
2406;SDS011;37709;53.480;9.688;2022-12-19T09:22:50;25.37;;;14.23;;
2406;SDS011;37709;53.480;9.688;2022-12-19T09:25:17;27.77;;;15.47;;
2406;SDS011;37709;53.480;9.688;2022-12-19T09:27:45;36.97;;;17.07;;
2406;SDS011;37709;53.480;9.688;2022-12-19T09:30:32;28.00;;;15.93;;
2406;SDS011;37709;53.480;9.688;2022-12-19T09:33:01;19.30;;;13.27;;
2406;SDS011;37709;53.480;9.688;2022-12-19T09:35:28;24.97;;;13.17;;
2406;SDS011;37709;53.480;9.688;2022-12-19T09:37:56;9.80;;;7.17;;
2406;SDS011;37709;53.480;9.688;2022-12-19T09:40:26;34.70;;;17.07;;
2406;SDS011;37709;53.480;9.688;2022-12-19T09:43:06;24.70;;;15.57;;
2406;SDS011;37709;53.480;9.688;2022-12-19T09:51:37;21.77;;;11.50;;
2406;SDS011;37709;53.480;9.688;2022-12-19T09:54:15;20.00;;;12.70;;
2406;SDS011;37709;53.480;9.688;2022-12-19T09:56:46;24.77;;;13.83;;
2406;SDS011;37709;53.480;9.688;2022-12-19T09:59:18;27.73;;;15.77;;
2406;SDS011;37709;53.480;9.688;2022-12-19T10:02:13;12.60;;;8.70;;
2406;SDS011;37709;53.480;9.688;2022-12-19T10:05:08;20.57;;;13.40;;
2406;SDS011;37709;53.480;9.688;2022-12-19T10:08:11;22.20;;;14.03;;
2406;SDS011;37709;53.480;9.688;2022-12-19T10:10:53;23.33;;;14.00;;
2406;SDS011;37709;53.480;9.688;2022-12-19T10:14:08;21.13;;;13.00;;
2406;SDS011;37709;53.480;9.688;2022-12-19T10:17:12;25.40;;;14.23;;
2406;SDS011;37709;53.480;9.688;2022-12-19T10:23:06;27.10;;;13.30;;
2406;SDS011;37709;53.480;9.688;2022-12-19T10:25:58;20.77;;;12.10;;
2406;SDS011;37709;53.480;9.688;2022-12-19T10:34:38;13.13;;;9.63;;
2406;SDS011;37709;53.480;9.688;2022-12-19T10:37:11;23.70;;;12.67;;
2406;SDS011;37709;53.480;9.688;2022-12-19T10:43:10;20.87;;;12.17;;
2406;SDS011;37709;53.480;9.688;2022-12-19T10:46:02;34.10;;;15.50;;
2406;SDS011;37709;53.480;9.688;2022-12-19T10:48:42;22.20;;;13.70;;
2406;SDS011;37709;53.480;9.688;2022-12-19T10:51:10;21.50;;;12.70;;
2406;SDS011;37709;53.480;9.688;2022-12-19T10:53:39;22.17;;;13.80;;
2406;SDS011;37709;53.480;9.688;2022-12-19T10:56:20;25.33;;;13.77;;
2406;SDS011;37709;53.480;9.688;2022-12-19T10:59:03;19.07;;;11.53;;
2406;SDS011;37709;53.480;9.688;2022-12-19T11:01:43;22.97;;;13.37;;
2406;SDS011;37709;53.480;9.688;2022-12-19T11:04:28;20.50;;;13.47;;
2406;SDS011;37709;53.480;9.688;2022-12-19T11:09:51;17.40;;;11.37;;
2406;SDS011;37709;53.480;9.688;2022-12-19T11:12:43;36.63;;;17.57;;
2406;SDS011;37709;53.480;9.688;2022-12-19T11:15:44;20.13;;;12.30;;
2406;SDS011;37709;53.480;9.688;2022-12-19T11:21:41;14.67;;;9.87;;
2406;SDS011;37709;53.480;9.688;2022-12-19T11:27:44;24.50;;;15.00;;
2406;SDS011;37709;53.480;9.688;2022-12-19T11:30:34;21.93;;;13.60;;
2406;SDS011;37709;53.480;9.688;2022-12-19T11:36:27;23.83;;;14.93;;
2406;SDS011;37709;53.480;9.688;2022-12-19T11:39:14;26.80;;;15.27;;
2406;SDS011;37709;53.480;9.688;2022-12-19T11:41:59;30.93;;;19.07;;
2406;SDS011;37709;53.480;9.688;2022-12-19T11:48:13;24.17;;;14.37;;
2406;SDS011;37709;53.480;9.688;2022-12-19T11:56:38;41.88;;;24.95;;
2406;SDS011;37709;53.480;9.688;2022-12-19T11:59:11;32.30;;;18.60;;
2406;SDS011;37709;53.480;9.688;2022-12-19T12:07:36;23.70;;;14.97;;
2406;SDS011;37709;53.480;9.688;2022-12-19T12:10:24;27.97;;;15.50;;
2406;SDS011;37709;53.480;9.688;2022-12-19T12:13:17;18.33;;;11.40;;
2406;SDS011;37709;53.480;9.688;2022-12-19T12:16:12;18.70;;;10.63;;
2406;SDS011;37709;53.480;9.688;2022-12-19T12:19:10;29.07;;;14.80;;
2406;SDS011;37709;53.480;9.688;2022-12-19T12:22:21;24.20;;;13.97;;
2406;SDS011;37709;53.480;9.688;2022-12-19T12:25:57;20.13;;;12.43;;
2406;SDS011;37709;53.480;9.688;2022-12-19T12:28:59;20.80;;;11.47;;
2406;SDS011;37709;53.480;9.688;2022-12-19T12:35:04;13.53;;;9.80;;
2406;SDS011;37709;53.480;9.688;2022-12-19T12:38:22;21.63;;;13.67;;
2406;SDS011;37709;53.480;9.688;2022-12-19T12:44:17;21.17;;;12.97;;
2406;SDS011;37709;53.480;9.688;2022-12-19T12:47:20;24.67;;;14.40;;
2406;SDS011;37709;53.480;9.688;2022-12-19T12:52:36;20.63;;;11.90;;
2406;SDS011;37709;53.480;9.688;2022-12-19T12:55:26;24.70;;;13.30;;
2406;SDS011;37709;53.480;9.688;2022-12-19T12:58:00;18.90;;;12.07;;
2406;SDS011;37709;53.480;9.688;2022-12-19T13:00:31;24.63;;;14.10;;
2406;SDS011;37709;53.480;9.688;2022-12-19T13:05:39;26.73;;;14.20;;
2406;SDS011;37709;53.480;9.688;2022-12-19T13:08:34;22.97;;;13.67;;
2406;SDS011;37709;53.480;9.688;2022-12-19T13:13:59;17.37;;;11.67;;
2406;SDS011;37709;53.480;9.688;2022-12-19T13:24:49;20.40;;;13.63;;
2406;SDS011;37709;53.480;9.688;2022-12-19T13:39:29;20.43;;;14.53;;
2406;SDS011;37709;53.480;9.688;2022-12-19T13:42:26;19.50;;;14.07;;
2406;SDS011;37709;53.480;9.688;2022-12-19T13:48:11;20.37;;;13.70;;
2406;SDS011;37709;53.480;9.688;2022-12-19T13:50:45;22.50;;;13.60;;
2406;SDS011;37709;53.480;9.688;2022-12-19T13:53:21;14.00;;;10.47;;
2406;SDS011;37709;53.480;9.688;2022-12-19T13:56:03;18.10;;;12.27;;
2406;SDS011;37709;53.480;9.688;2022-12-19T13:58:43;24.77;;;15.30;;
2406;SDS011;37709;53.480;9.688;2022-12-19T14:01:24;21.60;;;14.50;;
2406;SDS011;37709;53.480;9.688;2022-12-19T14:03:55;28.08;;;20.42;;
2406;SDS011;37709;53.480;9.688;2022-12-19T14:06:42;19.90;;;14.90;;
2406;SDS011;37709;53.480;9.688;2022-12-19T14:09:26;23.77;;;15.73;;
2406;SDS011;37709;53.480;9.688;2022-12-19T14:12:31;21.70;;;14.27;;
2406;SDS011;37709;53.480;9.688;2022-12-19T14:15:44;21.97;;;15.03;;
2406;SDS011;37709;53.480;9.688;2022-12-19T14:18:19;21.33;;;15.87;;
2406;SDS011;37709;53.480;9.688;2022-12-19T14:21:14;23.50;;;15.07;;
2406;SDS011;37709;53.480;9.688;2022-12-19T14:24:10;23.60;;;13.30;;
2406;SDS011;37709;53.480;9.688;2022-12-19T14:26:47;24.70;;;15.23;;
2406;SDS011;37709;53.480;9.688;2022-12-19T14:29:51;19.27;;;13.00;;
2406;SDS011;37709;53.480;9.688;2022-12-19T14:32:40;21.43;;;14.83;;
2406;SDS011;37709;53.480;9.688;2022-12-19T14:35:32;19.87;;;13.90;;
2406;SDS011;37709;53.480;9.688;2022-12-19T14:38:23;28.33;;;17.17;;
2406;SDS011;37709;53.480;9.688;2022-12-19T14:41:18;25.23;;;15.87;;
2406;SDS011;37709;53.480;9.688;2022-12-19T14:44:15;21.70;;;13.60;;
2406;SDS011;37709;53.480;9.688;2022-12-19T14:47:07;15.43;;;11.10;;
2406;SDS011;37709;53.480;9.688;2022-12-19T14:49:57;25.90;;;15.83;;
2406;SDS011;37709;53.480;9.688;2022-12-19T14:52:46;18.33;;;13.23;;
2406;SDS011;37709;53.480;9.688;2022-12-19T14:55:37;18.90;;;14.77;;
2406;SDS011;37709;53.480;9.688;2022-12-19T14:58:30;29.87;;;17.40;;
2406;SDS011;37709;53.480;9.688;2022-12-19T15:01:20;22.67;;;16.53;;
2406;SDS011;37709;53.480;9.688;2022-12-19T15:04:01;25.03;;;16.40;;
2406;SDS011;37709;53.480;9.688;2022-12-19T15:06:55;32.45;;;24.90;;
2406;SDS011;37709;53.480;9.688;2022-12-19T15:12:46;22.77;;;17.90;;
2406;SDS011;37709;53.480;9.688;2022-12-19T15:15:59;27.13;;;16.67;;
2406;SDS011;37709;53.480;9.688;2022-12-19T15:21:08;31.23;;;18.50;;
2406;SDS011;37709;53.480;9.688;2022-12-19T15:23:38;21.37;;;15.77;;
2406;SDS011;37709;53.480;9.688;2022-12-19T15:26:15;31.30;;;19.57;;
2406;SDS011;37709;53.480;9.688;2022-12-19T15:28:47;24.80;;;16.20;;
2406;SDS011;37709;53.480;9.688;2022-12-19T15:31:41;22.40;;;15.20;;
2406;SDS011;37709;53.480;9.688;2022-12-19T15:36:59;23.27;;;16.47;;
2406;SDS011;37709;53.480;9.688;2022-12-19T15:39:27;26.63;;;17.63;;
2406;SDS011;37709;53.480;9.688;2022-12-19T15:42:00;22.50;;;15.97;;
2406;SDS011;37709;53.480;9.688;2022-12-19T15:44:32;19.80;;;14.73;;
2406;SDS011;37709;53.480;9.688;2022-12-19T15:47:03;28.37;;;18.27;;
2406;SDS011;37709;53.480;9.688;2022-12-19T15:49:38;20.67;;;15.47;;
2406;SDS011;37709;53.480;9.688;2022-12-19T15:52:16;26.73;;;18.97;;
2406;SDS011;37709;53.480;9.688;2022-12-19T15:54:44;35.90;;;20.33;;
2406;SDS011;37709;53.480;9.688;2022-12-19T15:57:27;27.70;;;18.13;;
2406;SDS011;37709;53.480;9.688;2022-12-19T16:00:02;23.27;;;16.67;;
2406;SDS011;37709;53.480;9.688;2022-12-19T16:02:33;21.20;;;15.87;;
2406;SDS011;37709;53.480;9.688;2022-12-19T16:05:23;26.07;;;16.67;;
2406;SDS011;37709;53.480;9.688;2022-12-19T16:07:53;30.10;;;19.00;;
2406;SDS011;37709;53.480;9.688;2022-12-19T16:10:26;24.43;;;16.93;;
2406;SDS011;37709;53.480;9.688;2022-12-19T16:12:55;30.93;;;20.07;;
2406;SDS011;37709;53.480;9.688;2022-12-19T16:15:25;24.70;;;18.20;;
2406;SDS011;37709;53.480;9.688;2022-12-19T16:17:58;36.07;;;19.47;;
2406;SDS011;37709;53.480;9.688;2022-12-19T16:20:36;23.40;;;17.87;;
2406;SDS011;37709;53.480;9.688;2022-12-19T16:23:05;28.17;;;18.00;;
2406;SDS011;37709;53.480;9.688;2022-12-19T16:25:36;24.70;;;16.90;;
2406;SDS011;37709;53.480;9.688;2022-12-19T16:28:07;16.57;;;11.70;;
2406;SDS011;37709;53.480;9.688;2022-12-19T16:30:42;27.13;;;18.20;;
2406;SDS011;37709;53.480;9.688;2022-12-19T16:33:16;26.47;;;18.60;;
2406;SDS011;37709;53.480;9.688;2022-12-19T16:35:46;25.67;;;17.40;;
2406;SDS011;37709;53.480;9.688;2022-12-19T16:38:33;28.20;;;17.93;;
2406;SDS011;37709;53.480;9.688;2022-12-19T16:41:04;20.50;;;14.97;;
2406;SDS011;37709;53.480;9.688;2022-12-19T16:43:36;26.93;;;16.80;;
2406;SDS011;37709;53.480;9.688;2022-12-19T16:46:05;22.20;;;16.20;;
2406;SDS011;37709;53.480;9.688;2022-12-19T16:48:34;20.07;;;13.70;;
2406;SDS011;37709;53.480;9.688;2022-12-19T16:51:02;24.17;;;17.37;;
2406;SDS011;37709;53.480;9.688;2022-12-19T16:53:29;22.93;;;15.80;;
2406;SDS011;37709;53.480;9.688;2022-12-19T16:55:57;32.47;;;20.07;;
2406;SDS011;37709;53.480;9.688;2022-12-19T16:58:26;33.93;;;18.50;;
2406;SDS011;37709;53.480;9.688;2022-12-19T17:00:55;22.10;;;14.63;;
2406;SDS011;37709;53.480;9.688;2022-12-19T17:03:28;26.13;;;18.07;;
2406;SDS011;37709;53.480;9.688;2022-12-19T17:06:04;19.63;;;15.23;;
2406;SDS011;37709;53.480;9.688;2022-12-19T17:08:36;22.17;;;15.80;;
2406;SDS011;37709;53.480;9.688;2022-12-19T17:11:05;25.30;;;16.90;;
2406;SDS011;37709;53.480;9.688;2022-12-19T17:13:41;23.80;;;15.63;;
2406;SDS011;37709;53.480;9.688;2022-12-19T17:16:11;29.67;;;17.80;;
2406;SDS011;37709;53.480;9.688;2022-12-19T17:18:40;21.83;;;15.53;;
2406;SDS011;37709;53.480;9.688;2022-12-19T17:21:12;25.67;;;16.53;;
2406;SDS011;37709;53.480;9.688;2022-12-19T17:23:43;19.13;;;14.00;;
2406;SDS011;37709;53.480;9.688;2022-12-19T17:26:12;26.73;;;17.23;;
2406;SDS011;37709;53.480;9.688;2022-12-19T17:28:44;26.67;;;18.80;;
2406;SDS011;37709;53.480;9.688;2022-12-19T17:31:26;25.27;;;15.80;;